sensor_id;sensor_type;location;lat;lon;timestamp;pressure;altitude;pressure_sealevel;temperature;humidity
62694;BME280;48759;52.544;13.418;2023-02-28T00:00:35;102484.25;;;4.35;67.11
62694;BME280;48759;52.544;13.418;2023-02-28T00:03:02;102481.72;;;4.43;66.76
62694;BME280;48759;52.544;13.418;2023-02-28T00:05:30;102480.63;;;4.23;67.49
62694;BME280;48759;52.544;13.418;2023-02-28T00:07:57;102481.50;;;4.24;69.02
62694;BME280;48759;52.544;13.418;2023-02-28T00:10:25;102480.53;;;4.58;68.14
62694;BME280;48759;52.544;13.418;2023-02-28T00:12:54;102483.50;;;4.67;67.00
62694;BME280;48759;52.544;13.418;2023-02-28T00:15:23;102485.84;;;4.49;67.20
62694;BME280;48759;52.544;13.418;2023-02-28T00:17:50;102488.94;;;4.55;67.60
62694;BME280;48759;52.544;13.418;2023-02-28T00:20:17;102489.69;;;4.35;67.71
62694;BME280;48759;52.544;13.418;2023-02-28T00:22:47;102486.44;;;4.52;67.44
62694;BME280;48759;52.544;13.418;2023-02-28T00:25:16;102491.19;;;4.50;65.95
62694;BME280;48759;52.544;13.418;2023-02-28T00:27:43;102487.44;;;4.40;66.78
62694;BME280;48759;52.544;13.418;2023-02-28T00:30:13;102484.25;;;4.57;66.26
62694;BME280;48759;52.544;13.418;2023-02-28T00:32:40;102489.94;;;4.54;66.43
62694;BME280;48759;52.544;13.418;2023-02-28T00:35:07;102486.22;;;4.55;66.78
62694;BME280;48759;52.544;13.418;2023-02-28T00:37:34;102487.44;;;4.62;66.31
62694;BME280;48759;52.544;13.418;2023-02-28T00:40:03;102487.94;;;4.68;66.81
62694;BME280;48759;52.544;13.418;2023-02-28T00:42:31;102486.69;;;4.72;66.00
62694;BME280;48759;52.544;13.418;2023-02-28T00:44:58;102491.69;;;4.67;65.92
62694;BME280;48759;52.544;13.418;2023-02-28T00:47:25;102495.63;;;4.74;65.22
62694;BME280;48759;52.544;13.418;2023-02-28T00:49:52;102499.34;;;4.73;64.90
62694;BME280;48759;52.544;13.418;2023-02-28T00:52:18;102491.66;;;4.55;66.83
62694;BME280;48759;52.544;13.418;2023-02-28T00:54:45;102494.63;;;4.86;64.88
62694;BME280;48759;52.544;13.418;2023-02-28T00:57:13;102491.44;;;4.58;65.38
62694;BME280;48759;52.544;13.418;2023-02-28T00:59:40;102495.63;;;4.74;64.78
62694;BME280;48759;52.544;13.418;2023-02-28T01:02:06;102490.03;;;4.86;64.50
62694;BME280;48759;52.544;13.418;2023-02-28T01:04:35;102488.91;;;4.89;64.02
62694;BME280;48759;52.544;13.418;2023-02-28T01:07:01;102492.38;;;4.91;64.09
62694;BME280;48759;52.544;13.418;2023-02-28T01:09:28;102487.78;;;4.91;63.51
62694;BME280;48759;52.544;13.418;2023-02-28T01:11:55;102494.13;;;4.70;63.41
62694;BME280;48759;52.544;13.418;2023-02-28T01:14:23;102489.44;;;4.49;64.62
62694;BME280;48759;52.544;13.418;2023-02-28T01:16:50;102486.72;;;4.49;65.30
62694;BME280;48759;52.544;13.418;2023-02-28T01:19:16;102490.94;;;4.42;65.27
62694;BME280;48759;52.544;13.418;2023-02-28T01:21:43;102479.25;;;4.18;65.94
62694;BME280;48759;52.544;13.418;2023-02-28T01:24:10;102488.41;;;4.17;66.36
62694;BME280;48759;52.544;13.418;2023-02-28T01:26:36;102483.81;;;4.06;67.28
62694;BME280;48759;52.544;13.418;2023-02-28T01:29:03;102477.09;;;3.88;68.11
62694;BME280;48759;52.544;13.418;2023-02-28T01:31:31;102477.94;;;3.77;68.67
62694;BME280;48759;52.544;13.418;2023-02-28T01:33:57;102473.09;;;3.81;69.13
62694;BME280;48759;52.544;13.418;2023-02-28T01:36:25;102471.22;;;3.70;69.97
62694;BME280;48759;52.544;13.418;2023-02-28T01:38:52;102473.91;;;3.59;71.27
62694;BME280;48759;52.544;13.418;2023-02-28T01:41:22;102477.16;;;3.64;71.78
62694;BME280;48759;52.544;13.418;2023-02-28T01:44:00;102479.59;;;3.56;72.93
62694;BME280;48759;52.544;13.418;2023-02-28T01:46:30;102474.00;;;3.58;73.42
62694;BME280;48759;52.544;13.418;2023-02-28T01:49:02;102473.47;;;3.76;73.23
62694;BME280;48759;52.544;13.418;2023-02-28T01:51:33;102465.41;;;3.64;73.23
62694;BME280;48759;52.544;13.418;2023-02-28T01:54:03;102471.94;;;3.61;73.50
62694;BME280;48759;52.544;13.418;2023-02-28T01:56:34;102474.88;;;3.58;74.64
62694;BME280;48759;52.544;13.418;2023-02-28T01:59:03;102474.84;;;3.47;75.21
62694;BME280;48759;52.544;13.418;2023-02-28T02:01:31;102471.09;;;3.37;75.66
62694;BME280;48759;52.544;13.418;2023-02-28T02:04:01;102476.34;;;3.51;76.11
62694;BME280;48759;52.544;13.418;2023-02-28T02:06:31;102471.97;;;3.37;76.41
62694;BME280;48759;52.544;13.418;2023-02-28T02:09:00;102466.00;;;3.32;77.48
62694;BME280;48759;52.544;13.418;2023-02-28T02:11:28;102470.09;;;3.38;78.15
62694;BME280;48759;52.544;13.418;2023-02-28T02:17:05;102469.72;;;3.19;80.18
62694;BME280;48759;52.544;13.418;2023-02-28T02:20:11;102458.72;;;2.96;81.87
62694;BME280;48759;52.544;13.418;2023-02-28T02:23:09;102466.66;;;2.99;82.82
62694;BME280;48759;52.544;13.418;2023-02-28T02:25:43;102461.69;;;2.93;83.04
62694;BME280;48759;52.544;13.418;2023-02-28T02:28:30;102467.03;;;2.82;84.44
62694;BME280;48759;52.544;13.418;2023-02-28T02:31:16;102460.72;;;2.82;85.58
62694;BME280;48759;52.544;13.418;2023-02-28T02:37:17;102450.78;;;2.57;89.78
62694;BME280;48759;52.544;13.418;2023-02-28T02:39:51;102468.31;;;2.53;90.46
62694;BME280;48759;52.544;13.418;2023-02-28T02:42:23;102471.66;;;2.56;91.61
62694;BME280;48759;52.544;13.418;2023-02-28T02:44:59;102468.97;;;2.44;92.61
62694;BME280;48759;52.544;13.418;2023-02-28T02:47:29;102473.00;;;2.51;93.21
62694;BME280;48759;52.544;13.418;2023-02-28T02:49:59;102465.38;;;2.43;94.16
62694;BME280;48759;52.544;13.418;2023-02-28T02:52:33;102465.06;;;2.35;95.43
62694;BME280;48759;52.544;13.418;2023-02-28T02:55:02;102465.94;;;2.36;95.86
62694;BME280;48759;52.544;13.418;2023-02-28T02:57:33;102474.09;;;2.36;95.17
62694;BME280;48759;52.544;13.418;2023-02-28T03:00:04;102469.75;;;2.20;98.18
62694;BME280;48759;52.544;13.418;2023-02-28T03:02:34;102475.19;;;2.33;97.51
62694;BME280;48759;52.544;13.418;2023-02-28T03:05:05;102470.63;;;2.21;98.11
62694;BME280;48759;52.544;13.418;2023-02-28T03:07:34;102465.66;;;2.15;98.14
62694;BME280;48759;52.544;13.418;2023-02-28T03:10:00;102462.91;;;2.02;99.98
62694;BME280;48759;52.544;13.418;2023-02-28T03:12:32;102484.19;;;2.08;99.70
62694;BME280;48759;52.544;13.418;2023-02-28T03:15:08;102472.25;;;2.11;99.55
62694;BME280;48759;52.544;13.418;2023-02-28T03:18:00;102480.75;;;2.06;100.00
62694;BME280;48759;52.544;13.418;2023-02-28T03:20:37;102477.06;;;2.07;100.00
62694;BME280;48759;52.544;13.418;2023-02-28T03:23:13;102478.44;;;2.00;100.00
62694;BME280;48759;52.544;13.418;2023-02-28T03:25:51;102474.31;;;1.94;100.00
62694;BME280;48759;52.544;13.418;2023-02-28T03:28:23;102479.09;;;2.04;100.00
62694;BME280;48759;52.544;13.418;2023-02-28T03:30:58;102478.44;;;2.00;100.00
62694;BME280;48759;52.544;13.418;2023-02-28T03:33:28;102481.69;;;1.92;100.00
62694;BME280;48759;52.544;13.418;2023-02-28T03:35:58;102488.44;;;1.87;100.00
62694;BME280;48759;52.544;13.418;2023-02-28T03:38:30;102485.28;;;1.93;100.00
62694;BME280;48759;52.544;13.418;2023-02-28T03:41:01;102487.66;;;1.85;100.00
62694;BME280;48759;52.544;13.418;2023-02-28T03:43:36;102490.41;;;1.98;100.00
62694;BME280;48759;52.544;13.418;2023-02-28T03:46:09;102482.56;;;1.93;100.00
62694;BME280;48759;52.544;13.418;2023-02-28T03:48:39;102486.03;;;1.95;100.00
62694;BME280;48759;52.544;13.418;2023-02-28T03:51:09;102482.78;;;1.90;100.00
62694;BME280;48759;52.544;13.418;2023-02-28T03:53:42;102488.44;;;1.87;100.00
62694;BME280;48759;52.544;13.418;2023-02-28T03:56:14;102485.06;;;1.83;100.00
62694;BME280;48759;52.544;13.418;2023-02-28T03:58:47;102489.69;;;1.69;100.00
62694;BME280;48759;52.544;13.418;2023-02-28T04:01:20;102492.19;;;1.72;100.00
62694;BME280;48759;52.544;13.418;2023-02-28T04:03:47;102486.44;;;1.64;100.00
62694;BME280;48759;52.544;13.418;2023-02-28T04:06:18;102489.47;;;1.59;100.00
62694;BME280;48759;52.544;13.418;2023-02-28T04:08:47;102481.16;;;1.35;100.00
62694;BME280;48759;52.544;13.418;2023-02-28T04:11:19;102496.22;;;1.27;100.00
62694;BME280;48759;52.544;13.418;2023-02-28T04:13:46;102490.88;;;1.25;100.00
62694;BME280;48759;52.544;13.418;2023-02-28T04:16:13;102484.56;;;1.51;100.00
62694;BME280;48759;52.544;13.418;2023-02-28T04:18:40;102489.28;;;1.75;100.00
62694;BME280;48759;52.544;13.418;2023-02-28T04:21:08;102485.13;;;1.69;100.00
62694;BME280;48759;52.544;13.418;2023-02-28T04:23:35;102487.31;;;1.77;100.00
62694;BME280;48759;52.544;13.418;2023-02-28T04:26:03;102485.81;;;1.73;100.00
62694;BME280;48759;52.544;13.418;2023-02-28T04:28:31;102492.75;;;1.77;100.00
62694;BME280;48759;52.544;13.418;2023-02-28T04:30:59;102488.84;;;1.81;100.00
62694;BME280;48759;52.544;13.418;2023-02-28T04:33:27;102497.78;;;1.83;100.00
62694;BME280;48759;52.544;13.418;2023-02-28T04:36:01;102497.00;;;1.81;100.00
62694;BME280;48759;52.544;13.418;2023-02-28T04:38:29;102498.50;;;1.85;100.00
62694;BME280;48759;52.544;13.418;2023-02-28T04:40:57;102498.31;;;1.75;100.00
62694;BME280;48759;52.544;13.418;2023-02-28T04:43:25;102500.78;;;1.66;100.00
62694;BME280;48759;52.544;13.418;2023-02-28T04:45:52;102493.59;;;1.65;100.00
62694;BME280;48759;52.544;13.418;2023-02-28T04:48:22;102495.13;;;1.69;100.00
62694;BME280;48759;52.544;13.418;2023-02-28T04:50:48;102502.38;;;1.68;100.00
62694;BME280;48759;52.544;13.418;2023-02-28T04:53:15;102503.06;;;1.72;100.00
62694;BME280;48759;52.544;13.418;2023-02-28T04:55:41;102502.91;;;1.61;100.00
62694;BME280;48759;52.544;13.418;2023-02-28T04:58:08;102500.53;;;1.56;100.00
62694;BME280;48759;52.544;13.418;2023-02-28T05:00:36;102499.47;;;1.59;100.00
62694;BME280;48759;52.544;13.418;2023-02-28T05:03:03;102506.63;;;1.60;100.00
62694;BME280;48759;52.544;13.418;2023-02-28T05:05:29;102508.56;;;1.58;100.00
62694;BME280;48759;52.544;13.418;2023-02-28T05:07:56;102516.78;;;1.43;100.00
62694;BME280;48759;52.544;13.418;2023-02-28T05:10:23;102510.25;;;1.46;100.00
62694;BME280;48759;52.544;13.418;2023-02-28T05:12:50;102511.34;;;1.43;100.00
62694;BME280;48759;52.544;13.418;2023-02-28T05:15:17;102512.97;;;1.46;100.00
62694;BME280;48759;52.544;13.418;2023-02-28T05:17:44;102514.44;;;1.37;100.00
62694;BME280;48759;52.544;13.418;2023-02-28T05:20:12;102517.66;;;1.44;100.00
62694;BME280;48759;52.544;13.418;2023-02-28T05:22:40;102518.03;;;1.38;100.00
62694;BME280;48759;52.544;13.418;2023-02-28T05:25:08;102514.31;;;1.26;100.00
62694;BME280;48759;52.544;13.418;2023-02-28T05:27:37;102520.91;;;1.22;100.00
62694;BME280;48759;52.544;13.418;2023-02-28T05:30:05;102524.09;;;1.29;100.00
62694;BME280;48759;52.544;13.418;2023-02-28T05:32:35;102525.38;;;1.23;100.00
62694;BME280;48759;52.544;13.418;2023-02-28T05:35:04;102523.56;;;1.09;100.00
62694;BME280;48759;52.544;13.418;2023-02-28T05:37:31;102523.06;;;1.17;100.00
62694;BME280;48759;52.544;13.418;2023-02-28T05:39:58;102516.13;;;1.13;100.00
62694;BME280;48759;52.544;13.418;2023-02-28T05:42:24;102524.72;;;1.20;100.00
62694;BME280;48759;52.544;13.418;2023-02-28T05:44:51;102527.28;;;1.21;100.00
62694;BME280;48759;52.544;13.418;2023-02-28T05:47:18;102533.03;;;1.16;100.00
62694;BME280;48759;52.544;13.418;2023-02-28T05:49:44;102527.09;;;1.24;100.00
62694;BME280;48759;52.544;13.418;2023-02-28T05:52:12;102535.34;;;1.23;100.00
62694;BME280;48759;52.544;13.418;2023-02-28T05:54:39;102543.19;;;1.27;100.00
62694;BME280;48759;52.544;13.418;2023-02-28T05:57:06;102541.03;;;1.32;100.00
62694;BME280;48759;52.544;13.418;2023-02-28T05:59:33;102531.38;;;1.28;100.00
62694;BME280;48759;52.544;13.418;2023-02-28T06:01:59;102536.38;;;1.34;100.00
62694;BME280;48759;52.544;13.418;2023-02-28T06:04:26;102538.50;;;1.29;100.00
62694;BME280;48759;52.544;13.418;2023-02-28T06:06:53;102544.53;;;1.34;100.00
62694;BME280;48759;52.544;13.418;2023-02-28T06:09:21;102536.94;;;1.39;100.00
62694;BME280;48759;52.544;13.418;2023-02-28T06:11:48;102537.91;;;1.38;100.00
62694;BME280;48759;52.544;13.418;2023-02-28T06:14:16;102540.22;;;1.44;100.00
62694;BME280;48759;52.544;13.418;2023-02-28T06:16:43;102542.94;;;1.44;100.00
62694;BME280;48759;52.544;13.418;2023-02-28T06:19:11;102532.22;;;1.55;100.00
62694;BME280;48759;52.544;13.418;2023-02-28T06:21:38;102546.56;;;1.58;100.00
62694;BME280;48759;52.544;13.418;2023-02-28T06:24:05;102547.69;;;1.68;100.00
62694;BME280;48759;52.544;13.418;2023-02-28T06:26:33;102548.78;;;1.78;100.00
62694;BME280;48759;52.544;13.418;2023-02-28T06:29:00;102551.50;;;1.78;100.00
62694;BME280;48759;52.544;13.418;2023-02-28T06:31:27;102549.44;;;1.81;100.00
62694;BME280;48759;52.544;13.418;2023-02-28T06:33:54;102559.44;;;1.81;100.00
62694;BME280;48759;52.544;13.418;2023-02-28T06:36:21;102560.97;;;1.85;100.00
62694;BME280;48759;52.544;13.418;2023-02-28T06:38:48;102562.94;;;1.83;100.00
62694;BME280;48759;52.544;13.418;2023-02-28T06:41:20;102560.34;;;1.94;100.00
62694;BME280;48759;52.544;13.418;2023-02-28T06:43:48;102566.19;;;2.01;100.00
62694;BME280;48759;52.544;13.418;2023-02-28T06:46:15;102568.63;;;2.18;99.88
62694;BME280;48759;52.544;13.418;2023-02-28T06:48:43;102571.69;;;2.13;99.52
62694;BME280;48759;52.544;13.418;2023-02-28T06:51:11;102577.22;;;2.24;98.46
62694;BME280;48759;52.544;13.418;2023-02-28T06:53:39;102582.66;;;2.24;98.32
62694;BME280;48759;52.544;13.418;2023-02-28T06:56:08;102573.53;;;2.25;98.37
62694;BME280;48759;52.544;13.418;2023-02-28T06:58:35;102589.94;;;2.24;98.83
62694;BME280;48759;52.544;13.418;2023-02-28T07:01:04;102583.75;;;2.35;97.16
62694;BME280;48759;52.544;13.418;2023-02-28T07:03:32;102590.41;;;2.43;95.61
62694;BME280;48759;52.544;13.418;2023-02-28T07:05:58;102591.47;;;2.41;95.01
62694;BME280;48759;52.544;13.418;2023-02-28T07:08:25;102581.78;;;2.75;90.80
62694;BME280;48759;52.544;13.418;2023-02-28T07:10:53;102583.88;;;2.84;88.75
62694;BME280;48759;52.544;13.418;2023-02-28T07:13:20;102582.47;;;2.78;88.97
62694;BME280;48759;52.544;13.418;2023-02-28T07:15:53;102583.19;;;2.80;90.05
62694;BME280;48759;52.544;13.418;2023-02-28T07:18:21;102586.47;;;2.72;87.03
62694;BME280;48759;52.544;13.418;2023-02-28T07:20:48;102580.94;;;2.74;88.26
62694;BME280;48759;52.544;13.418;2023-02-28T07:23:14;102588.63;;;2.55;90.84
62694;BME280;48759;52.544;13.418;2023-02-28T07:25:41;102584.50;;;2.87;88.41
62694;BME280;48759;52.544;13.418;2023-02-28T07:28:09;102584.59;;;2.98;85.46
62694;BME280;48759;52.544;13.418;2023-02-28T07:30:35;102589.34;;;3.33;80.08
62694;BME280;48759;52.544;13.418;2023-02-28T07:33:02;102588.13;;;3.37;79.27
62694;BME280;48759;52.544;13.418;2023-02-28T07:35:30;102589.47;;;3.55;76.86
62694;BME280;48759;52.544;13.418;2023-02-28T07:37:57;102586.09;;;3.75;74.64
62694;BME280;48759;52.544;13.418;2023-02-28T07:40:24;102590.75;;;3.62;73.74
62694;BME280;48759;52.544;13.418;2023-02-28T07:42:51;102593.75;;;3.70;71.93
62694;BME280;48759;52.544;13.418;2023-02-28T07:45:18;102585.91;;;3.90;72.17
62694;BME280;48759;52.544;13.418;2023-02-28T07:47:45;102598.34;;;3.94;70.17
62694;BME280;48759;52.544;13.418;2023-02-28T07:50:14;102586.72;;;4.03;67.43
62694;BME280;48759;52.544;13.418;2023-02-28T07:52:42;102588.91;;;3.98;66.79
62694;BME280;48759;52.544;13.418;2023-02-28T07:55:10;102596.78;;;4.13;66.33
62694;BME280;48759;52.544;13.418;2023-02-28T07:57:37;102595.56;;;4.17;63.97
62694;BME280;48759;52.544;13.418;2023-02-28T08:00:05;102594.44;;;4.20;63.66
62694;BME280;48759;52.544;13.418;2023-02-28T08:02:32;102597.91;;;4.22;63.48
62694;BME280;48759;52.544;13.418;2023-02-28T08:04:59;102595.47;;;4.30;63.65
62694;BME280;48759;52.544;13.418;2023-02-28T08:07:26;102598.72;;;4.00;66.09
62694;BME280;48759;52.544;13.418;2023-02-28T08:09:54;102596.47;;;4.29;69.98
62694;BME280;48759;52.544;13.418;2023-02-28T08:12:21;102599.66;;;5.02;60.57
62694;BME280;48759;52.544;13.418;2023-02-28T08:14:48;102596.81;;;4.82;56.56
62694;BME280;48759;52.544;13.418;2023-02-28T08:17:14;102595.19;;;4.79;54.25
62694;BME280;48759;52.544;13.418;2023-02-28T08:19:41;102597.31;;;4.98;54.38
62694;BME280;48759;52.544;13.418;2023-02-28T08:22:08;102597.91;;;4.90;53.57
62694;BME280;48759;52.544;13.418;2023-02-28T08:24:34;102591.09;;;4.74;53.35
62694;BME280;48759;52.544;13.418;2023-02-28T08:27:02;102596.53;;;5.07;52.09
62694;BME280;48759;52.544;13.418;2023-02-28T08:29:29;102587.63;;;5.05;49.19
62694;BME280;48759;52.544;13.418;2023-02-28T08:31:56;102594.09;;;5.37;48.89
62694;BME280;48759;52.544;13.418;2023-02-28T08:34:24;102592.22;;;5.27;47.45
62694;BME280;48759;52.544;13.418;2023-02-28T08:36:50;102602.78;;;5.20;47.10
62694;BME280;48759;52.544;13.418;2023-02-28T08:39:18;102602.63;;;5.33;45.64
62694;BME280;48759;52.544;13.418;2023-02-28T08:41:48;102592.00;;;5.62;45.99
62694;BME280;48759;52.544;13.418;2023-02-28T08:44:16;102600.44;;;5.70;45.50
62694;BME280;48759;52.544;13.418;2023-02-28T08:46:44;102602.59;;;5.98;44.50
62694;BME280;48759;52.544;13.418;2023-02-28T08:49:11;102592.97;;;5.72;43.97
62694;BME280;48759;52.544;13.418;2023-02-28T08:51:38;102597.34;;;6.06;43.42
62694;BME280;48759;52.544;13.418;2023-02-28T08:54:05;102596.84;;;6.01;42.40
62694;BME280;48759;52.544;13.418;2023-02-28T08:56:32;102599.84;;;5.98;41.76
62694;BME280;48759;52.544;13.418;2023-02-28T08:58:59;102599.56;;;6.01;41.25
62694;BME280;48759;52.544;13.418;2023-02-28T09:01:28;102597.53;;;6.14;40.88
62694;BME280;48759;52.544;13.418;2023-02-28T09:03:55;102594.16;;;6.43;40.99
62694;BME280;48759;52.544;13.418;2023-02-28T09:06:24;102596.69;;;6.35;40.94
62694;BME280;48759;52.544;13.418;2023-02-28T09:08:51;102599.81;;;6.51;40.96
62694;BME280;48759;52.544;13.418;2023-02-28T09:11:19;102601.03;;;6.37;40.75
62694;BME280;48759;52.544;13.418;2023-02-28T09:13:46;102598.38;;;6.47;40.46
62694;BME280;48759;52.544;13.418;2023-02-28T09:16:14;102595.72;;;6.25;40.08
62694;BME280;48759;52.544;13.418;2023-02-28T09:18:43;102605.41;;;6.08;40.76
62694;BME280;48759;52.544;13.418;2023-02-28T09:21:12;102600.06;;;6.06;39.81
62694;BME280;48759;52.544;13.418;2023-02-28T09:23:40;102595.34;;;6.50;39.97
62694;BME280;48759;52.544;13.418;2023-02-28T09:26:07;102597.06;;;6.51;39.71
62694;BME280;48759;52.544;13.418;2023-02-28T09:28:34;102598.34;;;6.68;39.49
62694;BME280;48759;52.544;13.418;2023-02-28T09:31:01;102605.03;;;6.75;39.60
62694;BME280;48759;52.544;13.418;2023-02-28T09:33:29;102601.50;;;6.84;39.26
62694;BME280;48759;52.544;13.418;2023-02-28T09:36:02;102600.53;;;6.95;38.63
62694;BME280;48759;52.544;13.418;2023-02-28T09:38:29;102598.81;;;7.03;38.18
62694;BME280;48759;52.544;13.418;2023-02-28T09:40:57;102598.66;;;6.33;38.95
62694;BME280;48759;52.544;13.418;2023-02-28T09:43:28;102602.63;;;6.61;38.56
62694;BME280;48759;52.544;13.418;2023-02-28T09:46:00;102604.91;;;6.76;38.68
62694;BME280;48759;52.544;13.418;2023-02-28T09:48:33;102609.41;;;6.66;38.83
62694;BME280;48759;52.544;13.418;2023-02-28T09:51:05;102600.50;;;6.85;38.70
62694;BME280;48759;52.544;13.418;2023-02-28T09:53:38;102608.81;;;6.00;38.94
62694;BME280;48759;52.544;13.418;2023-02-28T09:56:08;102606.25;;;6.08;39.38
62694;BME280;48759;52.544;13.418;2023-02-28T09:58:40;102603.34;;;6.00;39.57
62694;BME280;48759;52.544;13.418;2023-02-28T10:01:12;102607.34;;;6.59;38.71
62694;BME280;48759;52.544;13.418;2023-02-28T10:03:50;102599.13;;;6.59;38.93
62694;BME280;48759;52.544;13.418;2023-02-28T10:06:27;102608.03;;;6.51;38.85
62694;BME280;48759;52.544;13.418;2023-02-28T10:08:58;102599.00;;;7.02;38.19
62694;BME280;48759;52.544;13.418;2023-02-28T10:11:27;102604.69;;;7.29;37.88
62694;BME280;48759;52.544;13.418;2023-02-28T10:13:57;102604.63;;;7.10;38.61
62694;BME280;48759;52.544;13.418;2023-02-28T10:16:31;102611.00;;;7.20;38.45
62694;BME280;48759;52.544;13.418;2023-02-28T10:19:03;102609.56;;;7.16;38.17
62694;BME280;48759;52.544;13.418;2023-02-28T10:21:35;102602.28;;;7.05;37.76
62694;BME280;48759;52.544;13.418;2023-02-28T10:24:11;102605.81;;;7.17;37.69
62694;BME280;48759;52.544;13.418;2023-02-28T10:26:45;102597.59;;;7.17;37.87
62694;BME280;48759;52.544;13.418;2023-02-28T10:29:11;102604.66;;;7.19;37.98
62694;BME280;48759;52.544;13.418;2023-02-28T10:31:39;102599.16;;;7.10;37.91
62694;BME280;48759;52.544;13.418;2023-02-28T10:34:06;102598.69;;;6.74;38.53
62694;BME280;48759;52.544;13.418;2023-02-28T10:36:36;102604.16;;;6.74;37.74
62694;BME280;48759;52.544;13.418;2023-02-28T10:39:39;102605.66;;;6.78;37.75
62694;BME280;48759;52.544;13.418;2023-02-28T10:42:21;102606.50;;;7.09;37.90
62694;BME280;48759;52.544;13.418;2023-02-28T10:45:05;102606.16;;;7.43;37.63
62694;BME280;48759;52.544;13.418;2023-02-28T10:47:33;102601.00;;;7.40;37.43
62694;BME280;48759;52.544;13.418;2023-02-28T10:50:01;102597.94;;;7.03;37.76
62694;BME280;48759;52.544;13.418;2023-02-28T10:52:38;102600.22;;;7.28;37.66
62694;BME280;48759;52.544;13.418;2023-02-28T10:55:19;102594.66;;;7.58;37.22
62694;BME280;48759;52.544;13.418;2023-02-28T10:57:47;102592.13;;;7.86;36.95
62694;BME280;48759;52.544;13.418;2023-02-28T11:00:16;102589.66;;;7.14;37.33
62694;BME280;48759;52.544;13.418;2023-02-28T11:02:44;102587.38;;;6.88;37.09
62694;BME280;48759;52.544;13.418;2023-02-28T11:05:28;102584.22;;;6.72;37.65
62694;BME280;48759;52.544;13.418;2023-02-28T11:08:02;102578.66;;;6.53;37.38
62694;BME280;48759;52.544;13.418;2023-02-28T11:10:32;102564.88;;;6.13;38.58
62694;BME280;48759;52.544;13.418;2023-02-28T11:13:00;102568.81;;;6.92;38.28
62694;BME280;48759;52.544;13.418;2023-02-28T11:15:29;102568.66;;;7.24;37.68
62694;BME280;48759;52.544;13.418;2023-02-28T11:17:59;102566.91;;;7.23;37.49
62694;BME280;48759;52.544;13.418;2023-02-28T11:20:28;102568.66;;;6.63;38.28
62694;BME280;48759;52.544;13.418;2023-02-28T11:22:58;102555.75;;;7.64;37.27
62694;BME280;48759;52.544;13.418;2023-02-28T11:25:29;102554.34;;;7.80;37.24
62694;BME280;48759;52.544;13.418;2023-02-28T11:27:58;102558.09;;;7.10;37.71
62694;BME280;48759;52.544;13.418;2023-02-28T11:30:32;102564.72;;;7.95;37.30
62694;BME280;48759;52.544;13.418;2023-02-28T11:33:00;102562.41;;;7.72;37.29
62694;BME280;48759;52.544;13.418;2023-02-28T11:35:31;102556.78;;;7.92;37.23
62694;BME280;48759;52.544;13.418;2023-02-28T11:38:02;102554.91;;;7.64;37.20
62694;BME280;48759;52.544;13.418;2023-02-28T11:40:34;102566.31;;;7.79;36.99
62694;BME280;48759;52.544;13.418;2023-02-28T11:43:18;102545.66;;;7.94;36.97
62694;BME280;48759;52.544;13.418;2023-02-28T11:45:58;102552.03;;;8.04;36.71
62694;BME280;48759;52.544;13.418;2023-02-28T11:48:33;102556.78;;;8.21;36.54
62694;BME280;48759;52.544;13.418;2023-02-28T11:51:13;102558.66;;;8.30;36.74
62694;BME280;48759;52.544;13.418;2023-02-28T11:56:52;102560.47;;;8.59;36.26
62694;BME280;48759;52.544;13.418;2023-02-28T11:59:45;102561.25;;;8.22;36.19
62694;BME280;48759;52.544;13.418;2023-02-28T12:02:34;102559.53;;;8.02;36.63
62694;BME280;48759;52.544;13.418;2023-02-28T12:05:24;102558.81;;;8.19;36.51
62694;BME280;48759;52.544;13.418;2023-02-28T12:08:02;102555.09;;;8.67;36.05
62694;BME280;48759;52.544;13.418;2023-02-28T12:10:35;102562.41;;;7.72;36.47
62694;BME280;48759;52.544;13.418;2023-02-28T12:13:16;102560.38;;;8.12;36.72
62694;BME280;48759;52.544;13.418;2023-02-28T12:18:56;102553.13;;;8.50;36.02
62694;BME280;48759;52.544;13.418;2023-02-28T12:21:48;102541.88;;;8.43;35.86
62694;BME280;48759;52.544;13.418;2023-02-28T12:27:18;102537.31;;;7.95;36.83
62694;BME280;48759;52.544;13.418;2023-02-28T12:29:50;102538.03;;;8.26;36.47
62694;BME280;48759;52.544;13.418;2023-02-28T12:32:23;102531.84;;;8.61;36.34
62694;BME280;48759;52.544;13.418;2023-02-28T12:34:57;102526.31;;;7.76;36.64
62694;BME280;48759;52.544;13.418;2023-02-28T12:37:29;102517.72;;;8.56;36.49
62694;BME280;48759;52.544;13.418;2023-02-28T12:40:01;102515.94;;;7.89;36.73
62694;BME280;48759;52.544;13.418;2023-02-28T12:42:34;102516.47;;;8.41;36.71
62694;BME280;48759;52.544;13.418;2023-02-28T12:45:09;102506.28;;;8.61;36.34
62694;BME280;48759;52.544;13.418;2023-02-28T12:47:38;102498.28;;;8.40;36.50
62694;BME280;48759;52.544;13.418;2023-02-28T12:50:09;102488.84;;;8.89;36.21
62694;BME280;48759;52.544;13.418;2023-02-28T12:52:43;102483.53;;;9.05;35.56
62694;BME280;48759;52.544;13.418;2023-02-28T12:55:15;102489.09;;;8.96;35.98
62694;BME280;48759;52.544;13.418;2023-02-28T12:57:50;102486.69;;;9.10;35.77
62694;BME280;48759;52.544;13.418;2023-02-28T13:00:21;102483.84;;;9.02;36.08
62694;BME280;48759;52.544;13.418;2023-02-28T13:03:12;102486.22;;;9.33;34.90
62694;BME280;48759;52.544;13.418;2023-02-28T13:06:10;102470.38;;;8.81;34.90
62694;BME280;48759;52.544;13.418;2023-02-28T13:08:59;102463.53;;;9.31;34.91
62694;BME280;48759;52.544;13.418;2023-02-28T13:11:28;102459.50;;;9.07;35.26
62694;BME280;48759;52.544;13.418;2023-02-28T13:14:02;102469.31;;;9.55;34.56
62694;BME280;48759;52.544;13.418;2023-02-28T13:16:48;102466.50;;;9.02;35.17
62694;BME280;48759;52.544;13.418;2023-02-28T13:19:19;102469.03;;;9.31;35.05